Aline, Georgia
Current Conditions -  °F | °C
As of 3:35 AM on Saturday 01 Nov 2014 (Local Time) from KVDI Reporting Station
Overcast Overcast  
Wind Chill: 41°   Ceiling: 5000
Heat Index: 46°   Visibility: 10mi
Dew Point: 34°   Wind: 13mph
Humidity: 62%   Direction: 300°WNW
Pressure: 29.88"   Gusts: 26mph
Location:  32.2572°N, 82.1288°W
Report Text: KVDI 010735Z AUTO 30011G23KT 10SM SCT037 SCT043 OVC050 08/01 A2988 RMK AO2
Loading
Personal Weather Stations






























Interactive Weather Map
Tropical Storm Tracking
New forecast layout! Learn more

10-Day Weather Forecast

Advertisements
Track Severe Weather on mobile